Portada
METAR-TAF:

METAR-TAF

Aeropuertos :

Gwadar, Pakistán

latitud: 25-13-59N, longitud: 062-19-46E, altitud: 29 m

METAR: falta

Hora: 04:31 (23:31 UTC)

Pronóstico

El informe se hizo hace 8 horas y 1 minutos, a las 15:30 UTC
Pronóstico válido del 20 a las 18 UTC al 21 a las 18 UTC
Viento 7 kt del noroeste
Visibilidad: 4000 m
Nubes dispersas a una altura de 9000 ft
calima
Temporalmente
del 21 a las 00 UTC al 21 a las 04 UTC
Viento 2 kt con dirección variable
Visibilidad: 2500 m
Nubes dispersas a una altura de 3000 ft
neblina
Evolucionando progresivamente
del 21 a las 04 UTC al 21 a las 06 UTC
Viento 7 kt del sureste con ráfagas de 17 kt
Visibilidad: 6000 m

TAF: OPGD 201530Z 2018/2118 31007KT 4000 HZ SCT090 TEMPO 2100/2104 VRB02KT 2500 BR SCT030 BECMG 2104/2106 14007G17KT 6000 NSC

Observaciones y pronósticos meteorológicos de más de 4000 aeropuertos (mensajes METAR y TAF).

Los puntos amarillos y rojos representan las estaciones disponibles.

Ponga el ratón en el punto deseado para ver el nombre de la estación.

Haga clic para ver las observaciones y los pronósticos meteorológicos.

Para cambiar el mapa : haga clic en los botones verdes con una cruz de color negro para hacer un zoom, en el botón verde con un guión para alejar o en las flechas verdes para mapas adyacentes.


METAR-TAF: